sensor_id;sensor_type;location;lat;lon;timestamp;P1;durP1;ratioP1;P2;durP2;ratioP2
8592;SDS011;4334;49.982;8.398;2022-10-16T00:02:19;6.90;;;4.70;;
8592;SDS011;4334;49.982;8.398;2022-10-16T00:04:45;6.70;;;5.10;;
8592;SDS011;4334;49.982;8.398;2022-10-16T00:07:12;5.70;;;4.70;;
8592;SDS011;4334;49.982;8.398;2022-10-16T00:09:40;4.97;;;4.33;;
8592;SDS011;4334;49.982;8.398;2022-10-16T00:12:07;7.00;;;5.00;;
8592;SDS011;4334;49.982;8.398;2022-10-16T00:14:34;8.03;;;5.20;;
8592;SDS011;4334;49.982;8.398;2022-10-16T00:17:01;7.27;;;4.97;;
8592;SDS011;4334;49.982;8.398;2022-10-16T00:19:28;7.73;;;5.07;;
8592;SDS011;4334;49.982;8.398;2022-10-16T00:21:55;6.97;;;5.10;;
8592;SDS011;4334;49.982;8.398;2022-10-16T00:24:22;9.37;;;4.90;;
8592;SDS011;4334;49.982;8.398;2022-10-16T00:26:50;7.13;;;4.67;;
8592;SDS011;4334;49.982;8.398;2022-10-16T00:29:17;8.47;;;5.27;;
8592;SDS011;4334;49.982;8.398;2022-10-16T00:31:43;7.40;;;4.70;;
8592;SDS011;4334;49.982;8.398;2022-10-16T00:34:10;7.90;;;4.63;;
8592;SDS011;4334;49.982;8.398;2022-10-16T00:36:37;6.57;;;5.53;;
8592;SDS011;4334;49.982;8.398;2022-10-16T00:39:04;8.77;;;5.20;;
8592;SDS011;4334;49.982;8.398;2022-10-16T00:41:31;10.23;;;4.63;;
8592;SDS011;4334;49.982;8.398;2022-10-16T00:44:01;8.37;;;4.90;;
8592;SDS011;4334;49.982;8.398;2022-10-16T00:46:29;9.80;;;4.50;;
8592;SDS011;4334;49.982;8.398;2022-10-16T00:49:02;7.73;;;4.93;;
8592;SDS011;4334;49.982;8.398;2022-10-16T00:51:31;12.27;;;4.93;;
8592;SDS011;4334;49.982;8.398;2022-10-16T00:54:02;6.40;;;4.60;;
8592;SDS011;4334;49.982;8.398;2022-10-16T00:56:33;10.23;;;5.00;;
8592;SDS011;4334;49.982;8.398;2022-10-16T00:59:02;6.83;;;4.30;;
8592;SDS011;4334;49.982;8.398;2022-10-16T01:01:32;6.53;;;4.70;;
8592;SDS011;4334;49.982;8.398;2022-10-16T01:03:59;5.00;;;4.23;;
8592;SDS011;4334;49.982;8.398;2022-10-16T01:06:28;6.27;;;4.30;;
8592;SDS011;4334;49.982;8.398;2022-10-16T01:09:06;7.10;;;4.03;;
8592;SDS011;4334;49.982;8.398;2022-10-16T01:11:44;6.00;;;4.40;;
8592;SDS011;4334;49.982;8.398;2022-10-16T01:14:22;5.00;;;3.70;;
8592;SDS011;4334;49.982;8.398;2022-10-16T01:16:55;6.87;;;3.93;;
8592;SDS011;4334;49.982;8.398;2022-10-16T01:19:29;5.37;;;3.90;;
8592;SDS011;4334;49.982;8.398;2022-10-16T01:22:16;13.73;;;4.60;;
8592;SDS011;4334;49.982;8.398;2022-10-16T01:24:44;7.40;;;4.30;;
8592;SDS011;4334;49.982;8.398;2022-10-16T01:27:16;7.87;;;4.00;;
8592;SDS011;4334;49.982;8.398;2022-10-16T01:29:48;7.60;;;4.47;;
8592;SDS011;4334;49.982;8.398;2022-10-16T01:32:21;8.20;;;3.93;;
8592;SDS011;4334;49.982;8.398;2022-10-16T01:34:52;5.73;;;3.57;;
8592;SDS011;4334;49.982;8.398;2022-10-16T01:37:32;6.50;;;3.97;;
8592;SDS011;4334;49.982;8.398;2022-10-16T01:40:05;5.63;;;3.70;;
8592;SDS011;4334;49.982;8.398;2022-10-16T01:42:37;6.90;;;4.00;;
8592;SDS011;4334;49.982;8.398;2022-10-16T01:45:07;5.70;;;4.20;;
8592;SDS011;4334;49.982;8.398;2022-10-16T01:47:38;5.67;;;4.33;;
8592;SDS011;4334;49.982;8.398;2022-10-16T01:50:06;4.43;;;3.93;;
8592;SDS011;4334;49.982;8.398;2022-10-16T01:52:35;4.40;;;4.00;;
8592;SDS011;4334;49.982;8.398;2022-10-16T01:55:05;6.37;;;4.00;;
8592;SDS011;4334;49.982;8.398;2022-10-16T01:57:37;5.63;;;4.00;;
8592;SDS011;4334;49.982;8.398;2022-10-16T02:00:07;5.20;;;3.77;;
8592;SDS011;4334;49.982;8.398;2022-10-16T02:02:37;5.97;;;3.63;;
8592;SDS011;4334;49.982;8.398;2022-10-16T02:05:08;6.53;;;3.67;;
8592;SDS011;4334;49.982;8.398;2022-10-16T02:07:41;5.83;;;3.40;;
8592;SDS011;4334;49.982;8.398;2022-10-16T02:10:08;5.10;;;3.70;;
8592;SDS011;4334;49.982;8.398;2022-10-16T02:12:37;3.80;;;3.40;;
8592;SDS011;4334;49.982;8.398;2022-10-16T02:15:07;6.83;;;3.43;;
8592;SDS011;4334;49.982;8.398;2022-10-16T02:17:34;4.43;;;3.63;;
8592;SDS011;4334;49.982;8.398;2022-10-16T02:20:02;4.97;;;3.80;;
8592;SDS011;4334;49.982;8.398;2022-10-16T02:22:32;7.60;;;4.70;;
8592;SDS011;4334;49.982;8.398;2022-10-16T02:25:01;8.50;;;4.30;;
8592;SDS011;4334;49.982;8.398;2022-10-16T02:27:33;4.80;;;3.10;;
8592;SDS011;4334;49.982;8.398;2022-10-16T02:30:05;7.30;;;3.27;;
8592;SDS011;4334;49.982;8.398;2022-10-16T02:32:38;3.13;;;2.87;;
8592;SDS011;4334;49.982;8.398;2022-10-16T02:35:07;3.53;;;3.20;;
8592;SDS011;4334;49.982;8.398;2022-10-16T02:37:35;5.20;;;2.97;;
8592;SDS011;4334;49.982;8.398;2022-10-16T02:40:04;4.13;;;3.23;;
8592;SDS011;4334;49.982;8.398;2022-10-16T02:42:33;7.77;;;3.50;;
8592;SDS011;4334;49.982;8.398;2022-10-16T02:45:03;3.70;;;3.40;;
8592;SDS011;4334;49.982;8.398;2022-10-16T02:47:31;5.10;;;3.83;;
8592;SDS011;4334;49.982;8.398;2022-10-16T02:49:57;4.20;;;3.67;;
8592;SDS011;4334;49.982;8.398;2022-10-16T02:52:24;7.00;;;4.10;;
8592;SDS011;4334;49.982;8.398;2022-10-16T02:54:51;5.83;;;3.27;;
8592;SDS011;4334;49.982;8.398;2022-10-16T02:57:18;4.83;;;3.80;;
8592;SDS011;4334;49.982;8.398;2022-10-16T02:59:45;4.17;;;3.27;;
8592;SDS011;4334;49.982;8.398;2022-10-16T03:02:13;8.60;;;4.00;;
8592;SDS011;4334;49.982;8.398;2022-10-16T03:04:40;3.67;;;3.37;;
8592;SDS011;4334;49.982;8.398;2022-10-16T03:07:07;4.97;;;3.80;;
8592;SDS011;4334;49.982;8.398;2022-10-16T03:09:33;7.57;;;4.23;;
8592;SDS011;4334;49.982;8.398;2022-10-16T03:12:00;7.17;;;4.10;;
8592;SDS011;4334;49.982;8.398;2022-10-16T03:14:27;4.63;;;4.20;;
8592;SDS011;4334;49.982;8.398;2022-10-16T03:16:54;6.73;;;4.57;;
8592;SDS011;4334;49.982;8.398;2022-10-16T03:19:22;5.07;;;4.20;;
8592;SDS011;4334;49.982;8.398;2022-10-16T03:21:49;4.07;;;3.67;;
8592;SDS011;4334;49.982;8.398;2022-10-16T03:24:16;4.10;;;3.40;;
8592;SDS011;4334;49.982;8.398;2022-10-16T03:26:42;4.73;;;3.80;;
8592;SDS011;4334;49.982;8.398;2022-10-16T03:29:09;4.63;;;3.87;;
8592;SDS011;4334;49.982;8.398;2022-10-16T03:31:36;3.47;;;3.00;;
8592;SDS011;4334;49.982;8.398;2022-10-16T03:34:03;3.47;;;3.00;;
8592;SDS011;4334;49.982;8.398;2022-10-16T03:36:31;3.43;;;2.80;;
8592;SDS011;4334;49.982;8.398;2022-10-16T03:38:58;7.60;;;2.37;;
8592;SDS011;4334;49.982;8.398;2022-10-16T03:41:25;2.93;;;2.37;;
8592;SDS011;4334;49.982;8.398;2022-10-16T03:43:51;3.43;;;2.40;;
8592;SDS011;4334;49.982;8.398;2022-10-16T03:46:18;5.10;;;2.60;;
8592;SDS011;4334;49.982;8.398;2022-10-16T03:48:45;6.50;;;2.80;;
8592;SDS011;4334;49.982;8.398;2022-10-16T03:51:11;4.90;;;2.47;;
8592;SDS011;4334;49.982;8.398;2022-10-16T03:53:39;5.33;;;2.20;;
8592;SDS011;4334;49.982;8.398;2022-10-16T03:56:06;2.43;;;2.20;;
8592;SDS011;4334;49.982;8.398;2022-10-16T03:58:33;5.07;;;2.50;;
8592;SDS011;4334;49.982;8.398;2022-10-16T04:00:59;4.17;;;2.10;;
8592;SDS011;4334;49.982;8.398;2022-10-16T04:03:27;2.70;;;2.10;;
8592;SDS011;4334;49.982;8.398;2022-10-16T04:05:54;3.67;;;2.30;;
8592;SDS011;4334;49.982;8.398;2022-10-16T04:08:21;6.67;;;2.87;;
8592;SDS011;4334;49.982;8.398;2022-10-16T04:10:49;3.73;;;2.40;;
8592;SDS011;4334;49.982;8.398;2022-10-16T04:13:16;3.13;;;2.60;;
8592;SDS011;4334;49.982;8.398;2022-10-16T04:15:44;5.67;;;2.90;;
8592;SDS011;4334;49.982;8.398;2022-10-16T04:18:11;3.27;;;2.10;;
8592;SDS011;4334;49.982;8.398;2022-10-16T04:20:38;2.37;;;2.13;;
8592;SDS011;4334;49.982;8.398;2022-10-16T04:23:05;2.30;;;2.10;;
8592;SDS011;4334;49.982;8.398;2022-10-16T04:25:31;3.63;;;1.83;;
8592;SDS011;4334;49.982;8.398;2022-10-16T04:27:59;2.67;;;1.83;;
8592;SDS011;4334;49.982;8.398;2022-10-16T04:30:26;2.07;;;1.60;;
8592;SDS011;4334;49.982;8.398;2022-10-16T04:32:53;4.27;;;1.60;;
8592;SDS011;4334;49.982;8.398;2022-10-16T04:35:20;4.70;;;1.70;;
8592;SDS011;4334;49.982;8.398;2022-10-16T04:37:47;2.63;;;1.70;;
8592;SDS011;4334;49.982;8.398;2022-10-16T04:40:15;7.53;;;4.90;;
8592;SDS011;4334;49.982;8.398;2022-10-16T04:42:42;11.03;;;5.47;;
8592;SDS011;4334;49.982;8.398;2022-10-16T04:45:10;7.60;;;4.20;;
8592;SDS011;4334;49.982;8.398;2022-10-16T04:47:37;7.47;;;3.90;;
8592;SDS011;4334;49.982;8.398;2022-10-16T04:50:04;5.63;;;2.67;;
8592;SDS011;4334;49.982;8.398;2022-10-16T04:52:32;29.73;;;15.10;;
8592;SDS011;4334;49.982;8.398;2022-10-16T04:54:59;16.70;;;8.00;;
8592;SDS011;4334;49.982;8.398;2022-10-16T04:57:27;10.67;;;4.83;;
8592;SDS011;4334;49.982;8.398;2022-10-16T04:59:54;12.27;;;6.80;;
8592;SDS011;4334;49.982;8.398;2022-10-16T05:02:22;9.83;;;5.67;;
8592;SDS011;4334;49.982;8.398;2022-10-16T05:04:49;12.17;;;6.90;;
8592;SDS011;4334;49.982;8.398;2022-10-16T05:07:16;6.87;;;2.50;;
8592;SDS011;4334;49.982;8.398;2022-10-16T05:09:43;3.40;;;2.00;;
8592;SDS011;4334;49.982;8.398;2022-10-16T05:12:09;4.50;;;1.77;;
8592;SDS011;4334;49.982;8.398;2022-10-16T05:14:36;2.73;;;2.20;;
8592;SDS011;4334;49.982;8.398;2022-10-16T05:17:03;5.03;;;2.00;;
8592;SDS011;4334;49.982;8.398;2022-10-16T05:19:31;8.57;;;3.57;;
8592;SDS011;4334;49.982;8.398;2022-10-16T05:21:58;4.47;;;2.67;;
8592;SDS011;4334;49.982;8.398;2022-10-16T05:24:25;2.60;;;2.40;;
8592;SDS011;4334;49.982;8.398;2022-10-16T05:26:52;5.70;;;3.10;;
8592;SDS011;4334;49.982;8.398;2022-10-16T05:29:18;4.20;;;2.20;;
8592;SDS011;4334;49.982;8.398;2022-10-16T05:31:45;2.53;;;2.30;;
8592;SDS011;4334;49.982;8.398;2022-10-16T05:34:12;2.23;;;2.03;;
8592;SDS011;4334;49.982;8.398;2022-10-16T05:36:40;2.20;;;2.00;;
8592;SDS011;4334;49.982;8.398;2022-10-16T05:39:07;4.17;;;1.80;;
8592;SDS011;4334;49.982;8.398;2022-10-16T05:41:33;2.37;;;1.90;;
8592;SDS011;4334;49.982;8.398;2022-10-16T05:44:03;2.50;;;1.80;;
8592;SDS011;4334;49.982;8.398;2022-10-16T05:46:30;5.03;;;2.20;;
8592;SDS011;4334;49.982;8.398;2022-10-16T05:48:57;3.37;;;2.00;;
8592;SDS011;4334;49.982;8.398;2022-10-16T05:51:24;2.13;;;1.93;;
8592;SDS011;4334;49.982;8.398;2022-10-16T05:53:52;2.97;;;2.20;;
8592;SDS011;4334;49.982;8.398;2022-10-16T05:56:19;2.43;;;2.23;;
8592;SDS011;4334;49.982;8.398;2022-10-16T05:58:46;5.10;;;2.20;;
8592;SDS011;4334;49.982;8.398;2022-10-16T06:01:13;6.10;;;2.57;;
8592;SDS011;4334;49.982;8.398;2022-10-16T06:03:41;2.20;;;2.00;;
8592;SDS011;4334;49.982;8.398;2022-10-16T06:06:08;2.53;;;2.30;;
8592;SDS011;4334;49.982;8.398;2022-10-16T06:08:36;3.83;;;2.30;;
8592;SDS011;4334;49.982;8.398;2022-10-16T06:11:05;2.47;;;2.00;;
8592;SDS011;4334;49.982;8.398;2022-10-16T06:13:34;3.70;;;2.13;;
8592;SDS011;4334;49.982;8.398;2022-10-16T06:16:01;2.20;;;2.00;;
8592;SDS011;4334;49.982;8.398;2022-10-16T06:18:28;5.40;;;2.53;;
8592;SDS011;4334;49.982;8.398;2022-10-16T06:20:56;3.67;;;2.10;;
8592;SDS011;4334;49.982;8.398;2022-10-16T06:23:23;3.33;;;2.00;;
8592;SDS011;4334;49.982;8.398;2022-10-16T06:25:51;4.53;;;2.20;;
8592;SDS011;4334;49.982;8.398;2022-10-16T06:28:20;4.17;;;2.17;;
8592;SDS011;4334;49.982;8.398;2022-10-16T06:30:47;5.90;;;2.30;;
8592;SDS011;4334;49.982;8.398;2022-10-16T06:33:14;5.43;;;2.30;;
8592;SDS011;4334;49.982;8.398;2022-10-16T06:35:41;2.90;;;2.17;;
8592;SDS011;4334;49.982;8.398;2022-10-16T06:38:08;3.90;;;2.00;;
8592;SDS011;4334;49.982;8.398;2022-10-16T06:40:34;2.63;;;1.80;;
8592;SDS011;4334;49.982;8.398;2022-10-16T06:43:01;3.17;;;2.10;;
8592;SDS011;4334;49.982;8.398;2022-10-16T06:45:29;2.80;;;1.90;;
8592;SDS011;4334;49.982;8.398;2022-10-16T06:47:56;3.20;;;1.90;;
8592;SDS011;4334;49.982;8.398;2022-10-16T06:50:23;2.40;;;1.90;;
8592;SDS011;4334;49.982;8.398;2022-10-16T06:52:49;2.10;;;1.90;;
8592;SDS011;4334;49.982;8.398;2022-10-16T06:55:16;4.67;;;2.10;;
8592;SDS011;4334;49.982;8.398;2022-10-16T06:57:43;4.73;;;2.13;;
8592;SDS011;4334;49.982;8.398;2022-10-16T07:00:17;2.83;;;2.07;;
8592;SDS011;4334;49.982;8.398;2022-10-16T07:02:50;3.63;;;2.43;;
8592;SDS011;4334;49.982;8.398;2022-10-16T07:05:18;3.27;;;2.30;;
8592;SDS011;4334;49.982;8.398;2022-10-16T07:07:44;3.63;;;2.20;;
8592;SDS011;4334;49.982;8.398;2022-10-16T07:10:11;5.07;;;1.83;;
8592;SDS011;4334;49.982;8.398;2022-10-16T07:12:38;4.37;;;2.40;;
8592;SDS011;4334;49.982;8.398;2022-10-16T07:15:05;5.37;;;2.20;;
8592;SDS011;4334;49.982;8.398;2022-10-16T07:17:32;4.10;;;2.50;;
8592;SDS011;4334;49.982;8.398;2022-10-16T07:20:01;4.67;;;2.40;;
8592;SDS011;4334;49.982;8.398;2022-10-16T07:22:27;4.07;;;2.53;;
8592;SDS011;4334;49.982;8.398;2022-10-16T07:24:54;3.17;;;2.67;;
8592;SDS011;4334;49.982;8.398;2022-10-16T07:27:21;3.87;;;2.70;;
8592;SDS011;4334;49.982;8.398;2022-10-16T07:29:49;4.60;;;2.57;;
8592;SDS011;4334;49.982;8.398;2022-10-16T07:32:15;4.23;;;2.93;;
8592;SDS011;4334;49.982;8.398;2022-10-16T07:34:42;4.43;;;2.90;;
8592;SDS011;4334;49.982;8.398;2022-10-16T07:37:10;5.17;;;2.90;;
8592;SDS011;4334;49.982;8.398;2022-10-16T07:39:37;5.40;;;3.27;;
8592;SDS011;4334;49.982;8.398;2022-10-16T07:42:04;6.63;;;3.33;;
8592;SDS011;4334;49.982;8.398;2022-10-16T07:44:31;3.77;;;3.40;;
8592;SDS011;4334;49.982;8.398;2022-10-16T07:46:57;3.43;;;3.13;;
8592;SDS011;4334;49.982;8.398;2022-10-16T07:49:25;6.40;;;3.40;;
8592;SDS011;4334;49.982;8.398;2022-10-16T07:51:51;4.57;;;3.30;;
8592;SDS011;4334;49.982;8.398;2022-10-16T07:54:19;3.53;;;3.23;;
8592;SDS011;4334;49.982;8.398;2022-10-16T07:56:46;4.43;;;3.23;;
8592;SDS011;4334;49.982;8.398;2022-10-16T07:59:13;6.50;;;3.10;;
8592;SDS011;4334;49.982;8.398;2022-10-16T08:01:40;4.20;;;3.20;;
8592;SDS011;4334;49.982;8.398;2022-10-16T08:04:08;6.37;;;3.70;;
8592;SDS011;4334;49.982;8.398;2022-10-16T08:06:36;5.30;;;4.80;;
8592;SDS011;4334;49.982;8.398;2022-10-16T08:09:04;9.17;;;6.20;;
8592;SDS011;4334;49.982;8.398;2022-10-16T08:11:33;4.40;;;3.43;;
8592;SDS011;4334;49.982;8.398;2022-10-16T08:14:00;5.17;;;3.20;;
8592;SDS011;4334;49.982;8.398;2022-10-16T08:16:27;7.23;;;2.90;;
8592;SDS011;4334;49.982;8.398;2022-10-16T08:18:54;5.30;;;2.43;;
8592;SDS011;4334;49.982;8.398;2022-10-16T08:21:21;2.93;;;2.30;;
8592;SDS011;4334;49.982;8.398;2022-10-16T08:23:49;3.50;;;2.70;;
8592;SDS011;4334;49.982;8.398;2022-10-16T08:26:16;3.20;;;2.73;;
8592;SDS011;4334;49.982;8.398;2022-10-16T08:28:45;3.50;;;2.43;;
8592;SDS011;4334;49.982;8.398;2022-10-16T08:31:12;6.33;;;3.03;;
8592;SDS011;4334;49.982;8.398;2022-10-16T08:33:41;3.17;;;2.73;;
8592;SDS011;4334;49.982;8.398;2022-10-16T08:36:10;6.90;;;3.07;;
8592;SDS011;4334;49.982;8.398;2022-10-16T08:38:38;4.53;;;3.33;;
8592;SDS011;4334;49.982;8.398;2022-10-16T08:41:16;5.50;;;2.93;;
8592;SDS011;4334;49.982;8.398;2022-10-16T08:43:58;3.30;;;3.00;;
8592;SDS011;4334;49.982;8.398;2022-10-16T08:46:38;4.20;;;3.50;;
8592;SDS011;4334;49.982;8.398;2022-10-16T08:49:12;7.63;;;3.03;;
8592;SDS011;4334;49.982;8.398;2022-10-16T08:51:40;5.50;;;2.97;;
8592;SDS011;4334;49.982;8.398;2022-10-16T08:54:11;7.13;;;3.30;;
8592;SDS011;4334;49.982;8.398;2022-10-16T08:56:49;8.57;;;3.30;;
8592;SDS011;4334;49.982;8.398;2022-10-16T08:59:17;4.87;;;2.70;;
8592;SDS011;4334;49.982;8.398;2022-10-16T09:01:45;6.03;;;3.03;;
8592;SDS011;4334;49.982;8.398;2022-10-16T09:07:18;4.07;;;2.70;;
8592;SDS011;4334;49.982;8.398;2022-10-16T09:10:05;3.80;;;2.70;;
8592;SDS011;4334;49.982;8.398;2022-10-16T09:12:45;13.63;;;2.90;;
8592;SDS011;4334;49.982;8.398;2022-10-16T09:15:29;4.73;;;2.90;;
8592;SDS011;4334;49.982;8.398;2022-10-16T09:18:02;7.40;;;3.57;;
8592;SDS011;4334;49.982;8.398;2022-10-16T09:20:38;3.83;;;2.87;;
8592;SDS011;4334;49.982;8.398;2022-10-16T09:23:15;4.53;;;2.97;;
8592;SDS011;4334;49.982;8.398;2022-10-16T09:25:45;4.43;;;3.03;;
8592;SDS011;4334;49.982;8.398;2022-10-16T09:28:14;5.13;;;3.00;;
8592;SDS011;4334;49.982;8.398;2022-10-16T09:30:42;4.33;;;2.87;;
8592;SDS011;4334;49.982;8.398;2022-10-16T09:33:10;2.87;;;2.40;;
8592;SDS011;4334;49.982;8.398;2022-10-16T09:35:39;4.43;;;2.53;;
8592;SDS011;4334;49.982;8.398;2022-10-16T09:38:08;6.23;;;2.47;;
8592;SDS011;4334;49.982;8.398;2022-10-16T09:40:46;3.23;;;2.30;;
8592;SDS011;4334;49.982;8.398;2022-10-16T09:43:18;2.63;;;2.20;;
8592;SDS011;4334;49.982;8.398;2022-10-16T09:45:56;2.47;;;2.00;;
8592;SDS011;4334;49.982;8.398;2022-10-16T09:48:25;3.30;;;2.27;;
8592;SDS011;4334;49.982;8.398;2022-10-16T09:50:58;5.20;;;2.20;;
8592;SDS011;4334;49.982;8.398;2022-10-16T09:53:37;3.17;;;2.10;;
8592;SDS011;4334;49.982;8.398;2022-10-16T09:56:06;2.27;;;2.00;;
8592;SDS011;4334;49.982;8.398;2022-10-16T09:58:33;3.37;;;2.27;;
8592;SDS011;4334;49.982;8.398;2022-10-16T10:01:01;3.00;;;2.00;;
8592;SDS011;4334;49.982;8.398;2022-10-16T10:03:32;3.83;;;2.27;;
8592;SDS011;4334;49.982;8.398;2022-10-16T10:06:03;2.87;;;2.37;;
8592;SDS011;4334;49.982;8.398;2022-10-16T10:08:41;2.77;;;2.10;;
8592;SDS011;4334;49.982;8.398;2022-10-16T10:11:18;2.30;;;2.10;;
8592;SDS011;4334;49.982;8.398;2022-10-16T10:14:05;2.57;;;2.20;;
8592;SDS011;4334;49.982;8.398;2022-10-16T10:16:36;2.63;;;1.90;;
8592;SDS011;4334;49.982;8.398;2022-10-16T10:19:03;2.27;;;2.00;;
8592;SDS011;4334;49.982;8.398;2022-10-16T10:21:32;6.63;;;2.07;;
8592;SDS011;4334;49.982;8.398;2022-10-16T10:23:59;2.20;;;1.70;;
8592;SDS011;4334;49.982;8.398;2022-10-16T10:26:27;2.40;;;2.00;;
8592;SDS011;4334;49.982;8.398;2022-10-16T10:28:57;2.73;;;2.00;;
8592;SDS011;4334;49.982;8.398;2022-10-16T10:31:29;2.10;;;1.90;;
8592;SDS011;4334;49.982;8.398;2022-10-16T10:34:05;3.95;;;1.95;;
8592;SDS011;4334;49.982;8.398;2022-10-16T10:36:45;2.72;;;1.75;;
8592;SDS011;4334;49.982;8.398;2022-10-16T10:39:19;3.90;;;1.70;;
8592;SDS011;4334;49.982;8.398;2022-10-16T10:41:57;2.70;;;2.00;;
8592;SDS011;4334;49.982;8.398;2022-10-16T10:44:37;3.95;;;2.05;;
8592;SDS011;4334;49.982;8.398;2022-10-16T10:47:23;2.38;;;1.80;;
8592;SDS011;4334;49.982;8.398;2022-10-16T10:50:02;4.60;;;1.70;;
8592;SDS011;4334;49.982;8.398;2022-10-16T10:52:36;2.47;;;2.20;;
8592;SDS011;4334;49.982;8.398;2022-10-16T10:55:14;5.55;;;2.55;;
8592;SDS011;4334;49.982;8.398;2022-10-16T10:57:49;2.75;;;2.20;;
8592;SDS011;4334;49.982;8.398;2022-10-16T11:00:28;2.58;;;2.03;;
8592;SDS011;4334;49.982;8.398;2022-10-16T11:03:03;5.72;;;2.08;;
8592;SDS011;4334;49.982;8.398;2022-10-16T11:05:42;3.35;;;2.10;;
8592;SDS011;4334;49.982;8.398;2022-10-16T11:08:13;3.15;;;2.00;;
8592;SDS011;4334;49.982;8.398;2022-10-16T11:10:45;2.83;;;1.92;;
8592;SDS011;4334;49.982;8.398;2022-10-16T11:13:19;2.20;;;2.00;;
8592;SDS011;4334;49.982;8.398;2022-10-16T11:15:53;1.90;;;1.70;;
8592;SDS011;4334;49.982;8.398;2022-10-16T11:18:24;3.92;;;1.75;;
8592;SDS011;4334;49.982;8.398;2022-10-16T11:20:59;3.20;;;1.90;;
8592;SDS011;4334;49.982;8.398;2022-10-16T11:23:33;2.28;;;1.80;;
8592;SDS011;4334;49.982;8.398;2022-10-16T11:26:05;2.65;;;1.80;;
8592;SDS011;4334;49.982;8.398;2022-10-16T11:28:41;1.90;;;1.80;;
8592;SDS011;4334;49.982;8.398;2022-10-16T11:31:11;2.47;;;1.98;;
8592;SDS011;4334;49.982;8.398;2022-10-16T11:33:42;2.20;;;2.00;;
8592;SDS011;4334;49.982;8.398;2022-10-16T11:36:16;4.05;;;1.80;;
8592;SDS011;4334;49.982;8.398;2022-10-16T11:38:48;3.20;;;1.73;;
8592;SDS011;4334;49.982;8.398;2022-10-16T11:41:22;3.38;;;2.00;;
8592;SDS011;4334;49.982;8.398;2022-10-16T11:43:56;6.78;;;2.13;;
8592;SDS011;4334;49.982;8.398;2022-10-16T11:46:43;3.38;;;2.08;;
8592;SDS011;4334;49.982;8.398;2022-10-16T11:49:16;3.33;;;2.10;;
8592;SDS011;4334;49.982;8.398;2022-10-16T11:51:51;4.03;;;2.00;;
8592;SDS011;4334;49.982;8.398;2022-10-16T11:54:28;4.45;;;2.17;;
8592;SDS011;4334;49.982;8.398;2022-10-16T11:57:02;1.63;;;1.52;;
8592;SDS011;4334;49.982;8.398;2022-10-16T11:59:38;1.92;;;1.55;;
8592;SDS011;4334;49.982;8.398;2022-10-16T12:02:21;1.83;;;1.35;;
8592;SDS011;4334;49.982;8.398;2022-10-16T12:05:05;2.03;;;1.52;;
8592;SDS011;4334;49.982;8.398;2022-10-16T12:07:43;2.58;;;2.38;;
8592;SDS011;4334;49.982;8.398;2022-10-16T12:10:21;2.13;;;1.38;;
8592;SDS011;4334;49.982;8.398;2022-10-16T12:12:49;1.92;;;1.33;;
8592;SDS011;4334;49.982;8.398;2022-10-16T12:15:20;1.75;;;1.50;;
8592;SDS011;4334;49.982;8.398;2022-10-16T12:17:48;1.88;;;1.30;;
8592;SDS011;4334;49.982;8.398;2022-10-16T12:20:21;1.60;;;1.50;;
8592;SDS011;4334;49.982;8.398;2022-10-16T12:22:54;1.80;;;1.50;;
8592;SDS011;4334;49.982;8.398;2022-10-16T12:25:23;1.40;;;1.30;;
8592;SDS011;4334;49.982;8.398;2022-10-16T12:27:56;3.00;;;1.40;;
8592;SDS011;4334;49.982;8.398;2022-10-16T12:30:25;1.73;;;1.40;;
8592;SDS011;4334;49.982;8.398;2022-10-16T12:32:54;2.45;;;1.50;;
8592;SDS011;4334;49.982;8.398;2022-10-16T12:35:24;3.08;;;1.50;;
8592;SDS011;4334;49.982;8.398;2022-10-16T12:37:54;1.60;;;1.40;;
8592;SDS011;4334;49.982;8.398;2022-10-16T12:40:33;2.72;;;1.50;;
8592;SDS011;4334;49.982;8.398;2022-10-16T12:43:11;1.33;;;1.23;;
8592;SDS011;4334;49.982;8.398;2022-10-16T12:45:39;1.60;;;1.50;;
8592;SDS011;4334;49.982;8.398;2022-10-16T12:48:18;3.88;;;1.70;;
8592;SDS011;4334;49.982;8.398;2022-10-16T12:50:46;1.67;;;1.30;;
8592;SDS011;4334;49.982;8.398;2022-10-16T12:53:21;2.00;;;1.50;;
8592;SDS011;4334;49.982;8.398;2022-10-16T12:55:52;1.73;;;1.40;;
8592;SDS011;4334;49.982;8.398;2022-10-16T12:58:32;1.50;;;1.40;;
8592;SDS011;4334;49.982;8.398;2022-10-16T13:01:12;1.38;;;1.27;;
8592;SDS011;4334;49.982;8.398;2022-10-16T13:06:53;1.58;;;1.48;;
8592;SDS011;4334;49.982;8.398;2022-10-16T13:09:32;1.80;;;1.50;;
8592;SDS011;4334;49.982;8.398;2022-10-16T13:12:17;4.93;;;1.45;;
8592;SDS011;4334;49.982;8.398;2022-10-16T13:15:16;1.70;;;1.60;;
8592;SDS011;4334;49.982;8.398;2022-10-16T13:17:53;3.75;;;1.52;;
8592;SDS011;4334;49.982;8.398;2022-10-16T13:20:28;3.75;;;1.60;;
8592;SDS011;4334;49.982;8.398;2022-10-16T13:23:02;1.73;;;1.55;;
8592;SDS011;4334;49.982;8.398;2022-10-16T13:25:41;2.20;;;1.50;;
8592;SDS011;4334;49.982;8.398;2022-10-16T13:28:18;3.30;;;1.70;;
8592;SDS011;4334;49.982;8.398;2022-10-16T13:30:52;2.38;;;1.52;;
8592;SDS011;4334;49.982;8.398;2022-10-16T13:33:23;1.80;;;1.63;;
8592;SDS011;4334;49.982;8.398;2022-10-16T13:35:56;4.80;;;1.83;;
8592;SDS011;4334;49.982;8.398;2022-10-16T13:38:24;4.38;;;1.70;;
8592;SDS011;4334;49.982;8.398;2022-10-16T13:40:54;2.83;;;1.70;;
8592;SDS011;4334;49.982;8.398;2022-10-16T13:43:24;2.17;;;1.80;;
8592;SDS011;4334;49.982;8.398;2022-10-16T13:45:56;1.90;;;1.65;;
8592;SDS011;4334;49.982;8.398;2022-10-16T13:48:25;2.03;;;1.60;;
8592;SDS011;4334;49.982;8.398;2022-10-16T13:50:59;3.58;;;1.67;;
8592;SDS011;4334;49.982;8.398;2022-10-16T13:53:26;1.75;;;1.63;;
8592;SDS011;4334;49.982;8.398;2022-10-16T13:55:57;2.47;;;1.65;;
8592;SDS011;4334;49.982;8.398;2022-10-16T13:58:25;2.28;;;1.80;;
8592;SDS011;4334;49.982;8.398;2022-10-16T14:00:53;3.25;;;1.70;;
8592;SDS011;4334;49.982;8.398;2022-10-16T14:03:22;2.35;;;1.80;;
8592;SDS011;4334;49.982;8.398;2022-10-16T14:05:50;8.00;;;2.00;;
8592;SDS011;4334;49.982;8.398;2022-10-16T14:08:19;3.60;;;1.88;;
8592;SDS011;4334;49.982;8.398;2022-10-16T14:10:47;2.38;;;1.70;;
8592;SDS011;4334;49.982;8.398;2022-10-16T14:13:17;2.38;;;1.80;;
8592;SDS011;4334;49.982;8.398;2022-10-16T14:15:46;3.75;;;1.90;;
8592;SDS011;4334;49.982;8.398;2022-10-16T14:18:17;3.13;;;1.90;;
8592;SDS011;4334;49.982;8.398;2022-10-16T14:20:46;2.60;;;1.90;;
8592;SDS011;4334;49.982;8.398;2022-10-16T14:23:21;2.25;;;1.83;;
8592;SDS011;4334;49.982;8.398;2022-10-16T14:25:51;5.55;;;2.38;;
8592;SDS011;4334;49.982;8.398;2022-10-16T14:28:20;3.35;;;2.17;;
8592;SDS011;4334;49.982;8.398;2022-10-16T14:30:52;3.17;;;1.90;;
8592;SDS011;4334;49.982;8.398;2022-10-16T14:33:21;2.42;;;2.10;;
8592;SDS011;4334;49.982;8.398;2022-10-16T14:36:00;4.68;;;2.20;;
8592;SDS011;4334;49.982;8.398;2022-10-16T14:38:29;4.15;;;2.10;;
8592;SDS011;4334;49.982;8.398;2022-10-16T14:40:57;4.47;;;2.00;;
8592;SDS011;4334;49.982;8.398;2022-10-16T14:43:29;2.75;;;1.90;;
8592;SDS011;4334;49.982;8.398;2022-10-16T14:45:59;4.10;;;2.08;;
8592;SDS011;4334;49.982;8.398;2022-10-16T14:48:27;3.45;;;2.10;;
8592;SDS011;4334;49.982;8.398;2022-10-16T14:50:54;3.92;;;2.15;;
8592;SDS011;4334;49.982;8.398;2022-10-16T14:53:21;3.30;;;1.92;;
8592;SDS011;4334;49.982;8.398;2022-10-16T14:55:47;3.40;;;2.40;;
8592;SDS011;4334;49.982;8.398;2022-10-16T14:58:15;3.13;;;2.20;;
8592;SDS011;4334;49.982;8.398;2022-10-16T15:00:45;4.03;;;2.17;;
8592;SDS011;4334;49.982;8.398;2022-10-16T15:03:13;2.53;;;2.10;;
8592;SDS011;4334;49.982;8.398;2022-10-16T15:05:40;3.67;;;2.55;;
8592;SDS011;4334;49.982;8.398;2022-10-16T15:08:07;4.40;;;2.85;;
8592;SDS011;4334;49.982;8.398;2022-10-16T15:10:35;4.25;;;2.88;;
8592;SDS011;4334;49.982;8.398;2022-10-16T15:13:05;2.58;;;2.38;;
8592;SDS011;4334;49.982;8.398;2022-10-16T15:15:33;3.47;;;2.70;;
8592;SDS011;4334;49.982;8.398;2022-10-16T15:18:04;5.63;;;2.38;;
8592;SDS011;4334;49.982;8.398;2022-10-16T15:20:32;5.07;;;2.55;;
8592;SDS011;4334;49.982;8.398;2022-10-16T15:23:00;3.45;;;2.50;;
8592;SDS011;4334;49.982;8.398;2022-10-16T15:25:29;5.28;;;2.65;;
8592;SDS011;4334;49.982;8.398;2022-10-16T15:27:58;5.65;;;2.58;;
8592;SDS011;4334;49.982;8.398;2022-10-16T15:30:26;3.33;;;2.72;;
8592;SDS011;4334;49.982;8.398;2022-10-16T15:32:53;4.50;;;2.55;;
8592;SDS011;4334;49.982;8.398;2022-10-16T15:35:22;2.70;;;2.50;;
8592;SDS011;4334;49.982;8.398;2022-10-16T15:37:48;5.05;;;2.70;;
8592;SDS011;4334;49.982;8.398;2022-10-16T15:40:16;6.30;;;2.40;;